createdAt,value
2018-02-06T00:02:01.679Z,11.43
2018-02-06T00:04:28.559Z,14.20
2018-02-06T00:06:55.419Z,10.70
2018-02-06T00:09:22.239Z,12.45
2018-02-06T00:11:49.098Z,12.27
2018-02-06T00:14:16.015Z,10.85
2018-02-06T00:16:42.842Z,12.20
2018-02-06T00:19:09.666Z,12.02
2018-02-06T00:21:36.556Z,11.55
2018-02-06T00:24:03.678Z,13.15
2018-02-06T00:26:30.601Z,14.77
2018-02-06T00:28:57.496Z,10.68
2018-02-06T00:31:24.315Z,13.52
2018-02-06T00:33:51.130Z,12.77
2018-02-06T00:36:17.970Z,12.37
2018-02-06T00:38:44.813Z,12.20
2018-02-06T00:41:11.661Z,14.70
2018-02-06T00:43:38.542Z,14.20
2018-02-06T00:46:05.410Z,15.63
2018-02-06T00:48:32.524Z,13.55
2018-02-06T00:50:59.387Z,13.93
2018-02-06T00:53:26.520Z,13.88
2018-02-06T00:55:53.330Z,14.47
2018-02-06T00:58:20.402Z,13.77
2018-02-06T01:00:47.222Z,13.90
2018-02-06T01:03:14.074Z,13.40
2018-02-06T01:05:40.932Z,12.70
2018-02-06T01:08:07.983Z,14.68
2018-02-06T01:10:34.950Z,15.10
2018-02-06T01:13:01.775Z,13.40
2018-02-06T01:15:28.602Z,16.02
2018-02-06T01:17:55.436Z,14.98
2018-02-06T01:20:22.312Z,14.85
2018-02-06T01:22:49.163Z,16.27
2018-02-06T01:25:16.298Z,15.90
2018-02-06T01:27:43.183Z,16.42
2018-02-06T01:30:10.048Z,16.42
2018-02-06T01:32:36.866Z,18.70
2018-02-06T01:35:03.975Z,15.80
2018-02-06T01:37:31.031Z,17.08
2018-02-06T01:39:57.880Z,16.00
2018-02-06T01:42:24.738Z,17.00
2018-02-06T01:44:51.554Z,15.77
2018-02-06T01:47:18.416Z,17.95
2018-02-06T01:49:51.329Z,17.37
2018-02-06T01:52:18.174Z,17.45
2018-02-06T01:54:45.294Z,19.10
2018-02-06T01:57:12.423Z,18.92
2018-02-06T01:59:39.576Z,18.23
2018-02-06T02:02:06.623Z,17.20
2018-02-06T02:04:33.497Z,15.75
2018-02-06T02:07:00.351Z,16.87
2018-02-06T02:09:27.461Z,17.48
2018-02-06T02:11:54.330Z,18.50
2018-02-06T02:14:21.179Z,17.27
2018-02-06T02:16:48.300Z,19.95
2018-02-06T02:19:15.443Z,18.37
2018-02-06T02:21:42.288Z,16.17
2018-02-06T02:24:09.209Z,17.25
2018-02-06T02:26:36.048Z,18.37
2018-02-06T02:29:02.873Z,18.55
2018-02-06T02:31:29.719Z,20.98
2018-02-06T02:33:56.865Z,20.88
2018-02-06T02:36:23.701Z,18.33
2018-02-06T02:38:50.808Z,19.40
2018-02-06T02:41:17.680Z,18.27
2018-02-06T04:38:50.735Z,21.87
2018-02-06T04:41:17.884Z,22.87
2018-02-06T04:43:44.768Z,20.42
2018-02-06T04:46:11.976Z,21.83
2018-02-06T04:48:38.828Z,22.65
2018-02-06T04:51:05.672Z,22.13
2018-02-06T04:53:32.768Z,23.95
2018-02-06T04:55:59.651Z,22.07
2018-02-06T04:58:26.492Z,22.75
2018-02-06T05:00:53.346Z,22.27
2018-02-06T05:03:20.500Z,20.90
2018-02-06T05:05:47.643Z,22.65
2018-02-06T05:08:14.792Z,22.55
2018-02-06T05:10:41.600Z,22.97
2018-02-06T05:13:08.684Z,20.42
2018-02-06T05:15:35.592Z,21.73
2018-02-06T05:18:02.670Z,21.27
2018-02-06T05:20:29.527Z,21.42
2018-02-06T05:22:56.666Z,21.77
2018-02-06T05:25:23.487Z,20.40
2018-02-06T05:27:50.693Z,21.23
2018-02-06T05:30:17.815Z,21.20
2018-02-06T05:32:44.903Z,19.80
2018-02-06T05:35:11.718Z,21.15
2018-02-06T05:37:38.557Z,22.40
2018-02-06T05:40:05.415Z,22.65
2018-02-06T05:42:32.550Z,23.00
2018-02-06T05:44:59.422Z,21.52
2018-02-06T05:47:26.251Z,22.73
2018-02-06T05:49:53.088Z,20.37
2018-02-06T05:52:19.930Z,20.90
2018-02-06T05:54:46.775Z,20.37
2018-02-06T05:57:13.620Z,21.35
2018-02-06T05:59:40.486Z,21.83
2018-02-06T06:02:07.332Z,19.30
2018-02-06T06:04:34.195Z,19.67
2018-02-06T06:07:01.028Z,19.73
2018-02-06T06:09:27.882Z,21.27
2018-02-06T06:11:54.963Z,21.25
2018-02-06T06:14:21.793Z,21.33
2018-02-06T06:16:48.964Z,22.23
2018-02-06T06:19:15.774Z,20.23
2018-02-06T06:21:42.644Z,21.20
2018-02-06T06:24:09.487Z,20.83
2018-02-06T06:26:36.336Z,21.15
2018-02-06T06:29:03.478Z,23.30
2018-02-06T06:31:30.636Z,20.33
2018-02-06T06:33:57.447Z,21.50
2018-02-06T06:36:24.320Z,23.48
2018-02-06T06:38:51.164Z,22.83
2018-02-06T06:41:17.975Z,20.58
2018-02-06T06:43:44.806Z,21.75
2018-02-06T06:46:11.631Z,21.45
2018-02-06T06:48:38.738Z,20.75
2018-02-06T06:51:05.570Z,19.70
2018-02-06T06:53:32.390Z,20.55
2018-02-06T06:55:59.237Z,20.02
2018-02-06T06:58:26.424Z,18.55
2018-02-06T07:00:53.571Z,20.67
2018-02-06T07:03:20.416Z,20.37
2018-02-06T07:05:47.258Z,20.92
2018-02-06T07:08:14.096Z,18.60
2018-02-06T07:10:40.940Z,26.08
2018-02-06T07:13:07.771Z,22.30
2018-02-06T07:15:34.619Z,20.12
2018-02-06T07:18:01.431Z,21.42
2018-02-06T07:20:28.515Z,25.15
2018-02-06T07:22:55.666Z,23.02
2018-02-06T07:25:22.518Z,20.15
2018-02-06T07:27:49.362Z,21.58
2018-02-06T07:30:16.179Z,20.70
2018-02-06T07:32:43.346Z,18.92
2018-02-06T07:35:10.518Z,19.73
2018-02-06T07:37:37.460Z,19.48
2018-02-06T07:40:04.272Z,20.55
2018-02-06T07:42:31.103Z,17.83
2018-02-06T07:44:58.288Z,18.52
2018-02-06T07:47:25.107Z,18.35
2018-02-06T07:49:52.010Z,22.08
2018-02-06T07:52:18.899Z,18.25
2018-02-06T07:54:46.011Z,20.73
2018-02-06T07:57:12.880Z,18.42
2018-02-06T07:59:39.723Z,17.60
2018-02-06T08:02:06.530Z,17.60
2018-02-06T08:04:33.644Z,22.62
2018-02-06T08:07:00.483Z,18.55
2018-02-06T08:09:27.324Z,18.92
2018-02-06T08:11:54.190Z,18.30
2018-02-06T08:14:22.248Z,18.05
2018-02-06T08:16:49.081Z,19.03
2018-02-06T08:19:15.940Z,18.37
2018-02-06T08:21:42.804Z,16.70
2018-02-06T08:24:09.928Z,19.15
2018-02-06T08:26:36.791Z,17.92
2018-02-06T08:29:03.930Z,15.93
2018-02-06T08:31:30.743Z,18.17
2018-02-06T08:33:57.612Z,16.40
2018-02-06T08:36:24.462Z,18.08
2018-02-06T08:38:51.595Z,20.02
2018-02-06T08:41:18.743Z,16.37
2018-02-06T08:43:45.550Z,15.35
2018-02-06T08:46:12.401Z,18.55
2018-02-06T08:48:39.506Z,18.90
2018-02-06T08:51:06.356Z,15.98
2018-02-06T08:53:33.476Z,18.70
2018-02-06T08:56:00.382Z,16.27
2018-02-06T08:58:27.468Z,17.17
2018-02-06T09:00:54.279Z,19.33
2018-02-06T09:03:21.464Z,21.20
2018-02-06T09:05:48.295Z,19.58
2018-02-06T09:08:15.122Z,18.62
2018-02-06T09:10:42.009Z,24.50
2018-02-06T09:13:08.869Z,30.00
2018-02-06T09:15:35.690Z,45.03
2018-02-06T09:18:02.832Z,28.85
2018-02-06T09:20:29.980Z,35.08
2018-02-06T09:22:57.243Z,21.03
2018-02-06T09:25:24.386Z,16.45
2018-02-06T09:27:51.540Z,18.62
2018-02-06T09:30:18.352Z,18.02
2018-02-06T09:32:45.248Z,14.35
2018-02-06T09:35:12.063Z,16.00
2018-02-06T09:37:39.206Z,16.40
2018-02-06T09:40:06.364Z,14.13
2018-02-06T09:42:33.218Z,17.00
2018-02-06T09:45:00.354Z,15.05
2018-02-06T09:47:27.228Z,12.68
2018-02-06T09:49:54.347Z,13.27
2018-02-06T09:52:21.513Z,13.80
2018-02-06T09:54:48.438Z,16.03
2018-02-06T09:57:15.276Z,12.90
2018-02-06T09:59:42.335Z,14.80
2018-02-06T10:02:09.203Z,14.33
2018-02-06T10:04:36.049Z,14.97
2018-02-06T10:07:02.855Z,12.23
2018-02-06T10:09:29.723Z,12.45
2018-02-06T10:11:56.539Z,14.63
2018-02-06T10:14:23.358Z,13.32
2018-02-06T10:16:50.555Z,14.48
2018-02-06T10:19:17.402Z,13.05
2018-02-06T10:21:44.235Z,13.85
2018-02-06T10:24:11.377Z,14.45
2018-02-06T10:26:38.199Z,16.12
2018-02-06T10:29:05.042Z,15.98
2018-02-06T10:31:32.219Z,14.30
2018-02-06T10:33:59.067Z,16.80
2018-02-06T10:36:25.881Z,16.40
2018-02-06T10:38:52.751Z,16.35
2018-02-06T10:41:19.571Z,16.87
2018-02-06T10:43:46.743Z,17.80
2018-02-06T10:46:13.566Z,19.95
2018-02-06T10:48:40.407Z,18.10
2018-02-06T10:51:07.213Z,19.05
2018-02-06T10:53:34.135Z,17.70
2018-02-06T10:56:01.263Z,14.65
2018-02-06T10:58:28.157Z,15.82
2018-02-06T11:00:55.260Z,15.38
2018-02-06T11:03:22.103Z,16.67
2018-02-06T11:05:48.947Z,28.55
2018-02-06T11:08:15.807Z,28.15
2018-02-06T11:10:42.614Z,28.52
2018-02-06T11:13:09.472Z,33.78
2018-02-06T11:15:36.370Z,26.73
2018-02-06T11:18:03.186Z,29.58
2018-02-06T11:20:30.311Z,23.73
2018-02-06T11:22:57.199Z,24.55
2018-02-06T11:25:24.003Z,24.08
2018-02-06T11:27:50.844Z,23.50
2018-02-06T11:30:17.703Z,24.15
2018-02-06T11:32:44.521Z,24.80
2018-02-06T11:35:11.355Z,23.90
2018-02-06T11:37:38.182Z,24.83
2018-02-06T11:40:05.031Z,23.60
2018-02-06T11:42:32.115Z,23.02
2018-02-06T11:44:59.254Z,24.23
2018-02-06T11:47:26.066Z,24.50
2018-02-06T11:49:52.918Z,28.23
2018-02-06T11:52:19.985Z,24.92
2018-02-06T11:54:46.831Z,22.65
2018-02-06T11:57:13.679Z,22.40
2018-02-06T11:59:40.547Z,24.47
2018-02-06T12:02:07.411Z,22.98
2018-02-06T12:04:34.267Z,20.33
2018-02-06T12:07:01.094Z,20.88
2018-02-06T12:09:27.943Z,23.50
2018-02-06T12:11:54.791Z,19.67
2018-02-06T12:14:21.648Z,23.17
2018-02-06T12:16:48.727Z,21.33
2018-02-06T12:19:15.534Z,21.50
2018-02-06T12:21:42.374Z,21.05
2018-02-06T12:24:09.227Z,22.30
2018-02-06T12:26:36.303Z,19.60
2018-02-06T12:29:03.455Z,21.40
2018-02-06T12:31:30.602Z,20.60
2018-02-06T12:33:57.459Z,22.58
2018-02-06T12:36:24.278Z,21.15
2018-02-06T12:38:51.083Z,19.37
2018-02-06T12:41:18.183Z,20.42
2018-02-06T12:43:45.331Z,20.35
2018-02-06T12:46:12.186Z,21.02
2018-02-06T12:48:39.039Z,20.73
2018-02-06T12:51:05.870Z,21.02
2018-02-06T12:53:32.716Z,20.30
2018-02-06T12:55:59.542Z,19.50
2018-02-06T12:58:26.707Z,21.37
2018-02-06T13:00:53.515Z,20.90
2018-02-06T13:03:20.371Z,20.60
2018-02-06T13:05:47.537Z,24.67
2018-02-06T13:08:14.354Z,21.77
2018-02-06T13:10:41.216Z,19.67
2018-02-06T13:13:08.103Z,20.77
2018-02-06T13:15:35.221Z,19.58
2018-02-06T13:18:02.075Z,20.50
2018-02-06T13:20:29.213Z,20.92
2018-02-06T13:22:56.358Z,20.88
2018-02-06T13:25:23.208Z,21.85
2018-02-06T13:27:50.068Z,21.45
2018-02-06T13:30:16.903Z,19.45
2018-02-06T13:32:44.034Z,23.20
2018-02-06T13:35:10.865Z,24.40
2018-02-06T13:37:37.727Z,24.00
2018-02-06T13:40:04.571Z,19.08
2018-02-06T13:42:31.409Z,19.73
2018-02-06T13:44:58.258Z,19.77
2018-02-06T13:47:25.412Z,20.95
2018-02-06T13:49:52.266Z,19.80
2018-02-06T13:52:19.101Z,21.50
2018-02-06T13:54:45.959Z,18.77
2018-02-06T13:57:13.085Z,20.60
2018-02-06T13:59:39.927Z,20.17
2018-02-06T14:02:06.759Z,18.40
2018-02-06T14:04:33.930Z,19.83
2018-02-06T14:07:00.772Z,19.48
2018-02-06T14:09:27.916Z,18.98
2018-02-06T14:11:54.758Z,17.33
2018-02-06T14:14:21.811Z,16.85
2018-02-06T14:16:48.635Z,17.17
2018-02-06T14:19:15.804Z,17.70
2018-02-06T14:21:42.688Z,17.20
2018-02-06T14:24:09.796Z,16.73
2018-02-06T14:26:36.948Z,18.05
2018-02-06T14:29:03.775Z,17.50
2018-02-06T14:31:30.576Z,17.05
2018-02-06T14:33:57.454Z,17.60
2018-02-06T14:36:24.270Z,18.58
2018-02-06T14:38:51.473Z,19.10
2018-02-06T14:41:18.302Z,19.30
2018-02-06T14:43:45.472Z,19.00
2018-02-06T14:46:12.314Z,19.17
2018-02-06T14:48:39.139Z,17.50
2018-02-06T14:51:05.992Z,19.30
2018-02-06T14:53:33.145Z,19.87
2018-02-06T14:56:00.007Z,19.90
2018-02-06T14:58:26.818Z,19.23
2018-02-06T15:00:53.634Z,18.25
2018-02-06T15:03:20.714Z,18.75
2018-02-06T15:05:47.566Z,18.50
2018-02-06T15:08:14.622Z,17.62
2018-02-06T15:10:41.455Z,18.40
2018-02-06T15:13:08.304Z,18.67
2018-02-06T15:15:35.107Z,19.00
2018-02-06T15:18:01.984Z,17.75
2018-02-06T15:20:29.133Z,18.52
2018-02-06T15:22:55.962Z,18.23
2018-02-06T15:25:23.126Z,18.30
2018-02-06T15:27:50.175Z,18.42
2018-02-06T15:30:17.023Z,20.47
2018-02-06T15:32:44.174Z,18.50
2018-02-06T15:35:11.036Z,19.08
2018-02-06T15:37:38.160Z,20.00
2018-02-06T15:40:05.024Z,19.10
2018-02-06T15:42:32.156Z,19.77
2018-02-06T15:44:59.010Z,21.12
2018-02-06T15:47:25.879Z,21.08
2018-02-06T15:49:52.735Z,20.42
2018-02-06T15:52:19.833Z,21.20
2018-02-06T15:54:46.699Z,24.15
2018-02-06T15:57:13.516Z,21.15
2018-02-06T15:59:40.372Z,23.52
2018-02-06T16:02:07.250Z,21.52
2018-02-06T16:04:34.088Z,22.20
2018-02-06T16:07:00.904Z,22.60
2018-02-06T16:09:27.746Z,22.80
2018-02-06T16:11:54.882Z,26.70
2018-02-06T16:14:22.074Z,23.42
2018-02-06T16:16:48.886Z,23.48
2018-02-06T16:19:16.031Z,23.33
2018-02-06T16:21:42.875Z,23.73
2018-02-06T16:24:09.744Z,26.50
2018-02-06T16:26:36.862Z,27.67
2018-02-06T16:29:03.721Z,24.67
2018-02-06T16:31:30.858Z,23.87
2018-02-06T16:33:57.673Z,23.87
2018-02-06T16:36:24.756Z,27.23
2018-02-06T16:38:51.587Z,25.55
2018-02-06T16:41:18.742Z,23.27
2018-02-06T16:43:45.894Z,25.80
2018-02-06T16:46:12.764Z,26.52
2018-02-06T16:48:39.582Z,25.25
2018-02-06T16:51:06.732Z,27.08
2018-02-06T16:53:33.563Z,26.00
2018-02-06T16:56:00.416Z,28.10
2018-02-06T16:58:27.226Z,28.60
2018-02-06T17:00:54.100Z,25.45
2018-02-06T17:03:21.268Z,30.90
2018-02-06T17:05:48.116Z,26.52
2018-02-06T17:08:15.247Z,26.40
2018-02-06T17:10:42.399Z,25.50
2018-02-06T17:13:09.211Z,27.48
2018-02-06T17:15:36.056Z,26.27
2018-02-06T17:18:02.903Z,26.30
2018-02-06T17:20:29.731Z,29.98
2018-02-06T17:22:56.820Z,29.05
2018-02-06T17:25:23.634Z,28.15
2018-02-06T17:27:50.816Z,27.92
2018-02-06T17:30:17.651Z,27.80
2018-02-06T17:32:44.702Z,26.87
2018-02-06T17:35:11.565Z,27.33
2018-02-06T17:37:38.399Z,27.83
2018-02-06T17:40:05.544Z,30.15
2018-02-06T17:42:32.697Z,27.50
2018-02-06T17:44:59.562Z,28.90
2018-02-06T17:47:26.683Z,29.23
2018-02-06T17:49:53.490Z,28.17
2018-02-06T17:52:20.331Z,28.87
2018-02-06T17:54:47.168Z,27.73
2018-02-06T17:57:14.369Z,29.63
2018-02-06T17:59:41.229Z,29.92
2018-02-06T18:02:08.042Z,29.98
2018-02-06T18:04:34.855Z,31.02
2018-02-06T18:07:01.744Z,30.95
2018-02-06T18:09:28.588Z,30.90
2018-02-06T18:11:55.732Z,30.75
2018-02-06T18:14:22.922Z,31.02
2018-02-06T18:16:50.036Z,31.10
2018-02-06T18:19:16.886Z,31.85
2018-02-06T18:21:43.737Z,31.52
2018-02-06T18:24:10.547Z,31.37
2018-02-06T18:26:37.358Z,30.97
2018-02-06T18:29:04.227Z,31.73
2018-02-06T18:31:31.104Z,31.93
2018-02-06T18:33:57.947Z,33.10
2018-02-06T18:36:25.092Z,41.63
2018-02-06T18:38:51.901Z,39.30
2018-02-06T18:43:59.760Z,44.88
2018-02-06T18:46:26.596Z,36.20
2018-02-06T18:48:53.401Z,33.25
2018-02-06T18:51:20.478Z,32.47
2018-02-06T18:53:47.326Z,31.73
2018-02-06T18:56:14.184Z,32.10
2018-02-06T18:58:41.322Z,34.20
2018-02-06T19:01:08.134Z,33.72
2018-02-06T19:03:34.973Z,32.17
2018-02-06T19:06:01.843Z,33.00
2018-02-06T19:08:28.686Z,34.03
2018-02-06T19:10:55.840Z,31.40
2018-02-06T19:13:22.996Z,31.97
2018-02-06T19:15:50.138Z,34.17
2018-02-06T19:18:17.029Z,34.08
2018-02-06T19:20:43.899Z,33.15
2018-02-06T19:23:10.744Z,37.38
2018-02-06T19:25:37.571Z,34.60
2018-02-06T19:28:04.445Z,39.80
2018-02-06T19:30:31.616Z,40.40
2018-02-06T19:32:58.439Z,43.38
2018-02-06T19:35:25.266Z,35.30
2018-02-06T19:37:52.343Z,34.10
2018-02-06T19:40:19.491Z,33.45
2018-02-06T19:42:46.648Z,34.08
2018-02-06T19:45:13.471Z,33.00
2018-02-06T19:47:40.306Z,36.28
2018-02-06T19:50:07.184Z,34.80
2018-02-06T19:52:34.006Z,34.75
2018-02-06T19:55:01.068Z,37.38
2018-02-06T19:57:27.938Z,36.95
2018-02-06T19:59:54.743Z,33.13
2018-02-06T20:02:21.830Z,34.00
2018-02-06T20:04:48.952Z,32.95
2018-02-06T20:07:15.834Z,36.53
2018-02-06T20:09:42.635Z,35.92
2018-02-06T20:12:09.487Z,34.25
2018-02-06T20:14:36.336Z,35.75
2018-02-06T20:17:03.478Z,43.67
2018-02-06T20:19:30.356Z,41.40
2018-02-06T20:21:57.256Z,35.42
2018-02-06T20:24:24.062Z,34.15
2018-02-06T20:26:51.251Z,33.78
2018-02-06T20:29:18.105Z,33.40
2018-02-06T20:31:44.914Z,33.87
2018-02-06T20:34:11.747Z,32.90
2018-02-06T20:36:38.572Z,37.55
2018-02-06T20:39:05.383Z,33.95
2018-02-06T20:41:32.255Z,37.92
2018-02-06T20:43:59.104Z,38.40
2018-02-06T20:46:25.910Z,34.45
2018-02-06T20:48:53.047Z,37.13
2018-02-06T20:51:19.866Z,40.00
2018-02-06T20:53:46.687Z,52.72
2018-02-06T20:56:13.527Z,44.45
2018-02-06T20:58:40.412Z,37.90
2018-02-06T21:01:07.576Z,33.35
2018-02-06T21:03:34.723Z,32.53
2018-02-06T21:06:01.612Z,32.65
2018-02-06T21:08:28.431Z,31.20
2018-02-06T21:10:55.296Z,33.45
2018-02-06T21:13:22.399Z,35.92
2018-02-06T21:15:49.550Z,32.70
2018-02-06T21:18:16.410Z,32.83
2018-02-06T21:20:43.590Z,31.12
2018-02-06T21:23:10.404Z,33.42
2018-02-06T21:25:37.534Z,31.12
2018-02-06T21:28:04.342Z,32.53
2018-02-06T21:30:31.151Z,31.70
2018-02-06T21:32:58.036Z,32.37
2018-02-06T21:35:24.852Z,33.00
2018-02-06T21:37:51.658Z,33.07
2018-02-06T21:40:18.486Z,30.90
2018-02-06T21:42:45.302Z,33.60
2018-02-06T21:45:12.382Z,32.45
2018-02-06T21:47:39.249Z,34.72
2018-02-06T21:50:06.095Z,33.63
2018-02-06T21:52:33.175Z,33.80
2018-02-06T21:55:00.033Z,36.42
2018-02-06T21:57:26.855Z,43.00
2018-02-06T21:59:53.742Z,37.80
2018-02-06T22:02:20.616Z,32.75
2018-02-06T22:04:47.439Z,36.47
2018-02-06T22:07:14.592Z,33.85
2018-02-06T22:09:41.418Z,35.30
2018-02-06T22:12:08.234Z,33.53
2018-02-06T22:14:35.356Z,34.70
2018-02-06T22:17:02.216Z,34.30
2018-02-06T22:19:29.056Z,33.87
2018-02-06T22:21:56.164Z,33.70
2018-02-06T22:24:23.075Z,33.35
2018-02-06T22:26:50.151Z,34.22
2018-02-06T22:29:16.986Z,34.20
2018-02-06T22:31:43.861Z,34.60
2018-02-06T22:34:10.992Z,31.87
2018-02-06T22:36:38.333Z,33.83
2018-02-06T22:39:06.827Z,34.65
2018-02-06T22:41:33.685Z,32.58
2018-02-06T22:44:00.564Z,32.60
2018-02-06T22:46:27.658Z,32.00
2018-02-06T22:48:54.503Z,31.58
2018-02-06T22:51:21.551Z,32.35
2018-02-06T22:53:48.390Z,31.00
2018-02-06T22:56:15.202Z,33.33
2018-02-06T22:58:42.292Z,33.80
2018-02-06T23:01:09.442Z,32.92
2018-02-06T23:03:36.279Z,36.57
2018-02-06T23:06:03.099Z,32.78
2018-02-06T23:08:29.996Z,31.40
2018-02-06T23:10:56.801Z,32.63
2018-02-06T23:13:23.648Z,31.80
2018-02-06T23:15:50.510Z,31.90
2018-02-06T23:18:17.354Z,33.03
2018-02-06T23:20:44.502Z,32.73
2018-02-06T23:23:11.384Z,31.85
2018-02-06T23:25:38.482Z,34.25
2018-02-06T23:28:05.369Z,31.98
2018-02-06T23:30:32.198Z,37.63
2018-02-06T23:32:59.015Z,32.47
2018-02-06T23:35:25.880Z,33.78
2018-02-06T23:37:52.738Z,32.95
2018-02-06T23:40:19.554Z,31.73
2018-02-06T23:42:46.696Z,33.15
2018-02-06T23:45:13.622Z,33.63
2018-02-06T23:47:40.491Z,34.78
2018-02-06T23:50:07.295Z,33.50
2018-02-06T23:52:34.163Z,33.75
2018-02-06T23:55:01.019Z,32.30
2018-02-06T23:57:27.873Z,32.95
2018-02-06T23:59:54.756Z,34.00
